sensor_id;sensor_type;location;lat;lon;timestamp;P1;durP1;ratioP1;P2;durP2;ratioP2
19944;SDS011;10134;50.952;6.930;2022-07-25T00:01:54;6.53;;;5.18;;
19944;SDS011;10134;50.952;6.930;2022-07-25T00:04:22;6.38;;;4.63;;
19944;SDS011;10134;50.952;6.930;2022-07-25T00:06:50;6.45;;;5.20;;
19944;SDS011;10134;50.952;6.930;2022-07-25T00:09:17;6.63;;;5.30;;
19944;SDS011;10134;50.952;6.930;2022-07-25T00:11:44;7.45;;;5.05;;
19944;SDS011;10134;50.952;6.930;2022-07-25T00:14:12;7.65;;;5.28;;
19944;SDS011;10134;50.952;6.930;2022-07-25T00:16:39;8.68;;;5.15;;
19944;SDS011;10134;50.952;6.930;2022-07-25T00:19:07;7.78;;;5.32;;
19944;SDS011;10134;50.952;6.930;2022-07-25T00:21:34;5.00;;;4.50;;
19944;SDS011;10134;50.952;6.930;2022-07-25T00:24:01;6.45;;;5.07;;
19944;SDS011;10134;50.952;6.930;2022-07-25T00:26:29;8.25;;;5.45;;
19944;SDS011;10134;50.952;6.930;2022-07-25T00:29:02;5.75;;;4.75;;
19944;SDS011;10134;50.952;6.930;2022-07-25T00:31:29;7.80;;;4.85;;
19944;SDS011;10134;50.952;6.930;2022-07-25T00:33:57;7.55;;;5.68;;
19944;SDS011;10134;50.952;6.930;2022-07-25T00:36:24;6.90;;;5.20;;
19944;SDS011;10134;50.952;6.930;2022-07-25T00:38:51;7.72;;;5.13;;
19944;SDS011;10134;50.952;6.930;2022-07-25T00:41:18;6.72;;;5.63;;
19944;SDS011;10134;50.952;6.930;2022-07-25T00:43:46;11.98;;;5.10;;
19944;SDS011;10134;50.952;6.930;2022-07-25T00:46:16;7.65;;;5.22;;
19944;SDS011;10134;50.952;6.930;2022-07-25T00:48:46;5.65;;;4.72;;
19944;SDS011;10134;50.952;6.930;2022-07-25T00:51:14;5.57;;;4.65;;
19944;SDS011;10134;50.952;6.930;2022-07-25T00:53:43;9.40;;;5.53;;
19944;SDS011;10134;50.952;6.930;2022-07-25T00:56:11;7.25;;;5.18;;
19944;SDS011;10134;50.952;6.930;2022-07-25T00:58:38;8.52;;;4.93;;
19944;SDS011;10134;50.952;6.930;2022-07-25T01:01:05;9.48;;;5.00;;
19944;SDS011;10134;50.952;6.930;2022-07-25T01:03:32;6.60;;;4.97;;
19944;SDS011;10134;50.952;6.930;2022-07-25T01:06:01;8.50;;;5.25;;
19944;SDS011;10134;50.952;6.930;2022-07-25T01:08:28;6.70;;;5.32;;
19944;SDS011;10134;50.952;6.930;2022-07-25T01:10:56;6.72;;;5.32;;
19944;SDS011;10134;50.952;6.930;2022-07-25T01:13:23;5.55;;;4.68;;
19944;SDS011;10134;50.952;6.930;2022-07-25T01:15:50;6.15;;;4.75;;
19944;SDS011;10134;50.952;6.930;2022-07-25T01:18:18;6.22;;;5.63;;
19944;SDS011;10134;50.952;6.930;2022-07-25T01:20:45;6.22;;;5.18;;
19944;SDS011;10134;50.952;6.930;2022-07-25T01:23:12;5.65;;;5.00;;
19944;SDS011;10134;50.952;6.930;2022-07-25T01:25:40;6.90;;;5.50;;
19944;SDS011;10134;50.952;6.930;2022-07-25T01:28:07;6.30;;;5.18;;
19944;SDS011;10134;50.952;6.930;2022-07-25T01:30:34;6.10;;;4.97;;
19944;SDS011;10134;50.952;6.930;2022-07-25T01:33:01;7.28;;;5.50;;
19944;SDS011;10134;50.952;6.930;2022-07-25T01:35:32;9.82;;;5.13;;
19944;SDS011;10134;50.952;6.930;2022-07-25T01:37:59;8.18;;;6.07;;
19944;SDS011;10134;50.952;6.930;2022-07-25T01:40:27;5.72;;;5.13;;
19944;SDS011;10134;50.952;6.930;2022-07-25T01:42:54;6.32;;;4.68;;
19944;SDS011;10134;50.952;6.930;2022-07-25T01:45:21;4.65;;;4.25;;
19944;SDS011;10134;50.952;6.930;2022-07-25T01:47:48;8.23;;;5.40;;
19944;SDS011;10134;50.952;6.930;2022-07-25T01:50:17;7.75;;;5.57;;
19944;SDS011;10134;50.952;6.930;2022-07-25T01:52:44;7.13;;;5.50;;
19944;SDS011;10134;50.952;6.930;2022-07-25T01:55:11;7.70;;;5.20;;
19944;SDS011;10134;50.952;6.930;2022-07-25T01:57:39;8.35;;;5.43;;
19944;SDS011;10134;50.952;6.930;2022-07-25T02:00:15;8.35;;;5.18;;
19944;SDS011;10134;50.952;6.930;2022-07-25T02:02:43;6.80;;;4.85;;
19944;SDS011;10134;50.952;6.930;2022-07-25T02:05:11;7.78;;;5.32;;
19944;SDS011;10134;50.952;6.930;2022-07-25T02:07:40;8.10;;;5.10;;
19944;SDS011;10134;50.952;6.930;2022-07-25T02:10:07;7.88;;;5.80;;
19944;SDS011;10134;50.952;6.930;2022-07-25T02:12:35;8.43;;;6.03;;
19944;SDS011;10134;50.952;6.930;2022-07-25T02:15:02;7.43;;;5.25;;
19944;SDS011;10134;50.952;6.930;2022-07-25T02:17:33;7.20;;;5.60;;
19944;SDS011;10134;50.952;6.930;2022-07-25T02:20:00;9.02;;;5.50;;
19944;SDS011;10134;50.952;6.930;2022-07-25T02:22:27;6.95;;;5.30;;
19944;SDS011;10134;50.952;6.930;2022-07-25T02:24:54;6.65;;;5.75;;
19944;SDS011;10134;50.952;6.930;2022-07-25T02:27:22;5.68;;;4.90;;
19944;SDS011;10134;50.952;6.930;2022-07-25T02:29:49;8.25;;;5.80;;
19944;SDS011;10134;50.952;6.930;2022-07-25T02:32:16;6.93;;;4.93;;
19944;SDS011;10134;50.952;6.930;2022-07-25T02:34:44;8.32;;;5.28;;
19944;SDS011;10134;50.952;6.930;2022-07-25T02:37:11;7.78;;;5.72;;
19944;SDS011;10134;50.952;6.930;2022-07-25T02:39:39;9.30;;;5.03;;
19944;SDS011;10134;50.952;6.930;2022-07-25T02:42:06;5.70;;;5.03;;
19944;SDS011;10134;50.952;6.930;2022-07-25T02:44:33;7.07;;;5.32;;
19944;SDS011;10134;50.952;6.930;2022-07-25T02:47:00;8.50;;;4.63;;
19944;SDS011;10134;50.952;6.930;2022-07-25T02:49:28;8.05;;;5.18;;
19944;SDS011;10134;50.952;6.930;2022-07-25T02:51:55;9.07;;;5.20;;
19944;SDS011;10134;50.952;6.930;2022-07-25T02:54:23;11.32;;;5.47;;
19944;SDS011;10134;50.952;6.930;2022-07-25T02:56:50;7.00;;;5.47;;
19944;SDS011;10134;50.952;6.930;2022-07-25T02:59:17;7.32;;;5.63;;
19944;SDS011;10134;50.952;6.930;2022-07-25T03:01:45;6.60;;;5.00;;
19944;SDS011;10134;50.952;6.930;2022-07-25T03:04:12;7.43;;;5.88;;
19944;SDS011;10134;50.952;6.930;2022-07-25T03:06:41;6.68;;;5.20;;
19944;SDS011;10134;50.952;6.930;2022-07-25T03:09:09;8.60;;;5.38;;
19944;SDS011;10134;50.952;6.930;2022-07-25T03:11:36;8.27;;;4.95;;
19944;SDS011;10134;50.952;6.930;2022-07-25T03:14:03;6.35;;;5.25;;
19944;SDS011;10134;50.952;6.930;2022-07-25T03:16:33;8.43;;;4.90;;
19944;SDS011;10134;50.952;6.930;2022-07-25T03:19:01;6.35;;;5.50;;
19944;SDS011;10134;50.952;6.930;2022-07-25T03:21:28;6.18;;;5.32;;
19944;SDS011;10134;50.952;6.930;2022-07-25T03:23:56;8.25;;;6.00;;
19944;SDS011;10134;50.952;6.930;2022-07-25T03:26:23;6.30;;;5.57;;
19944;SDS011;10134;50.952;6.930;2022-07-25T03:28:51;6.10;;;5.07;;
19944;SDS011;10134;50.952;6.930;2022-07-25T03:31:18;7.60;;;5.40;;
19944;SDS011;10134;50.952;6.930;2022-07-25T03:33:45;8.77;;;5.70;;
19944;SDS011;10134;50.952;6.930;2022-07-25T03:36:12;7.13;;;5.65;;
19944;SDS011;10134;50.952;6.930;2022-07-25T03:38:40;7.65;;;5.47;;
19944;SDS011;10134;50.952;6.930;2022-07-25T03:41:07;7.25;;;5.43;;
19944;SDS011;10134;50.952;6.930;2022-07-25T03:43:34;6.03;;;5.43;;
19944;SDS011;10134;50.952;6.930;2022-07-25T03:46:02;5.63;;;5.03;;
19944;SDS011;10134;50.952;6.930;2022-07-25T03:48:29;7.07;;;5.75;;
19944;SDS011;10134;50.952;6.930;2022-07-25T03:50:57;7.63;;;5.32;;
19944;SDS011;10134;50.952;6.930;2022-07-25T03:53:30;6.32;;;5.32;;
19944;SDS011;10134;50.952;6.930;2022-07-25T03:55:57;7.47;;;5.18;;
19944;SDS011;10134;50.952;6.930;2022-07-25T03:58:25;7.80;;;5.32;;
19944;SDS011;10134;50.952;6.930;2022-07-25T04:00:52;6.35;;;4.82;;
19944;SDS011;10134;50.952;6.930;2022-07-25T04:03:19;5.90;;;5.13;;
19944;SDS011;10134;50.952;6.930;2022-07-25T04:05:46;7.53;;;5.22;;
19944;SDS011;10134;50.952;6.930;2022-07-25T04:08:14;7.68;;;5.68;;
19944;SDS011;10134;50.952;6.930;2022-07-25T04:10:41;6.93;;;5.57;;
19944;SDS011;10134;50.952;6.930;2022-07-25T04:13:08;7.25;;;5.82;;
19944;SDS011;10134;50.952;6.930;2022-07-25T04:15:35;7.05;;;5.95;;
19944;SDS011;10134;50.952;6.930;2022-07-25T04:18:03;8.93;;;6.57;;
19944;SDS011;10134;50.952;6.930;2022-07-25T04:20:34;8.95;;;5.90;;
19944;SDS011;10134;50.952;6.930;2022-07-25T04:23:03;7.50;;;5.53;;
19944;SDS011;10134;50.952;6.930;2022-07-25T04:25:30;6.15;;;5.10;;
19944;SDS011;10134;50.952;6.930;2022-07-25T04:27:57;6.88;;;5.40;;
19944;SDS011;10134;50.952;6.930;2022-07-25T04:30:24;6.25;;;5.07;;
19944;SDS011;10134;50.952;6.930;2022-07-25T04:32:52;6.35;;;4.95;;
19944;SDS011;10134;50.952;6.930;2022-07-25T04:35:19;7.45;;;5.60;;
19944;SDS011;10134;50.952;6.930;2022-07-25T04:37:47;6.47;;;5.50;;
19944;SDS011;10134;50.952;6.930;2022-07-25T04:40:15;6.65;;;5.50;;
19944;SDS011;10134;50.952;6.930;2022-07-25T04:42:42;6.47;;;5.47;;
19944;SDS011;10134;50.952;6.930;2022-07-25T04:45:09;5.82;;;5.32;;
19944;SDS011;10134;50.952;6.930;2022-07-25T04:47:37;7.57;;;5.57;;
19944;SDS011;10134;50.952;6.930;2022-07-25T04:50:04;8.00;;;5.25;;
19944;SDS011;10134;50.952;6.930;2022-07-25T04:52:32;12.10;;;5.97;;
19944;SDS011;10134;50.952;6.930;2022-07-25T04:54:59;5.50;;;5.00;;
19944;SDS011;10134;50.952;6.930;2022-07-25T04:57:26;7.80;;;5.70;;
19944;SDS011;10134;50.952;6.930;2022-07-25T04:59:53;7.50;;;5.22;;
19944;SDS011;10134;50.952;6.930;2022-07-25T05:02:21;7.32;;;5.45;;
19944;SDS011;10134;50.952;6.930;2022-07-25T05:04:49;9.05;;;5.38;;
19944;SDS011;10134;50.952;6.930;2022-07-25T05:07:17;7.25;;;5.85;;
19944;SDS011;10134;50.952;6.930;2022-07-25T05:09:45;5.60;;;4.75;;
19944;SDS011;10134;50.952;6.930;2022-07-25T05:12:12;5.70;;;5.07;;
19944;SDS011;10134;50.952;6.930;2022-07-25T05:14:40;8.52;;;4.80;;
19944;SDS011;10134;50.952;6.930;2022-07-25T05:17:07;8.45;;;5.38;;
19944;SDS011;10134;50.952;6.930;2022-07-25T05:19:34;6.57;;;5.50;;
19944;SDS011;10134;50.952;6.930;2022-07-25T05:22:02;6.75;;;5.00;;
19944;SDS011;10134;50.952;6.930;2022-07-25T05:24:33;6.97;;;5.18;;
19944;SDS011;10134;50.952;6.930;2022-07-25T05:27:01;6.60;;;4.90;;
19944;SDS011;10134;50.952;6.930;2022-07-25T05:29:29;7.10;;;5.13;;
19944;SDS011;10134;50.952;6.930;2022-07-25T05:31:57;12.70;;;5.47;;
19944;SDS011;10134;50.952;6.930;2022-07-25T05:34:25;6.43;;;4.85;;
19944;SDS011;10134;50.952;6.930;2022-07-25T05:36:52;5.60;;;4.90;;
19944;SDS011;10134;50.952;6.930;2022-07-25T05:39:19;8.20;;;5.45;;
19944;SDS011;10134;50.952;6.930;2022-07-25T05:41:47;8.48;;;5.32;;
19944;SDS011;10134;50.952;6.930;2022-07-25T05:44:14;9.27;;;5.32;;
19944;SDS011;10134;50.952;6.930;2022-07-25T05:46:41;6.15;;;5.20;;
19944;SDS011;10134;50.952;6.930;2022-07-25T05:49:08;7.85;;;5.38;;
19944;SDS011;10134;50.952;6.930;2022-07-25T05:51:36;5.68;;;4.95;;
19944;SDS011;10134;50.952;6.930;2022-07-25T05:54:03;7.43;;;5.07;;
19944;SDS011;10134;50.952;6.930;2022-07-25T05:56:31;5.55;;;4.85;;
19944;SDS011;10134;50.952;6.930;2022-07-25T05:58:59;7.20;;;5.50;;
19944;SDS011;10134;50.952;6.930;2022-07-25T06:01:26;5.75;;;4.97;;
19944;SDS011;10134;50.952;6.930;2022-07-25T06:03:54;8.88;;;5.50;;
19944;SDS011;10134;50.952;6.930;2022-07-25T06:06:21;7.00;;;5.20;;
19944;SDS011;10134;50.952;6.930;2022-07-25T06:08:48;6.47;;;4.90;;
19944;SDS011;10134;50.952;6.930;2022-07-25T06:11:17;6.60;;;5.05;;
19944;SDS011;10134;50.952;6.930;2022-07-25T06:13:45;7.53;;;5.07;;
19944;SDS011;10134;50.952;6.930;2022-07-25T06:16:12;8.88;;;5.28;;
19944;SDS011;10134;50.952;6.930;2022-07-25T06:18:39;8.27;;;5.18;;
19944;SDS011;10134;50.952;6.930;2022-07-25T06:21:06;8.73;;;5.25;;
19944;SDS011;10134;50.952;6.930;2022-07-25T06:23:34;7.47;;;5.72;;
19944;SDS011;10134;50.952;6.930;2022-07-25T06:26:01;6.90;;;5.53;;
19944;SDS011;10134;50.952;6.930;2022-07-25T06:28:28;6.32;;;5.20;;
19944;SDS011;10134;50.952;6.930;2022-07-25T06:30:56;11.18;;;5.57;;
19944;SDS011;10134;50.952;6.930;2022-07-25T06:33:23;7.18;;;4.93;;
19944;SDS011;10134;50.952;6.930;2022-07-25T06:35:50;6.88;;;5.18;;
19944;SDS011;10134;50.952;6.930;2022-07-25T06:38:18;7.35;;;5.40;;
19944;SDS011;10134;50.952;6.930;2022-07-25T06:40:45;7.68;;;4.97;;
19944;SDS011;10134;50.952;6.930;2022-07-25T06:43:12;6.95;;;4.95;;
19944;SDS011;10134;50.952;6.930;2022-07-25T06:45:39;8.48;;;5.13;;
19944;SDS011;10134;50.952;6.930;2022-07-25T06:48:13;10.25;;;5.07;;
19944;SDS011;10134;50.952;6.930;2022-07-25T06:50:41;7.05;;;5.20;;
19944;SDS011;10134;50.952;6.930;2022-07-25T06:53:08;6.95;;;4.97;;
19944;SDS011;10134;50.952;6.930;2022-07-25T06:55:35;7.47;;;5.43;;
19944;SDS011;10134;50.952;6.930;2022-07-25T06:58:03;5.85;;;4.47;;
19944;SDS011;10134;50.952;6.930;2022-07-25T07:00:30;7.47;;;5.45;;
19944;SDS011;10134;50.952;6.930;2022-07-25T07:02:58;10.43;;;5.13;;
19944;SDS011;10134;50.952;6.930;2022-07-25T07:05:29;6.60;;;5.25;;
19944;SDS011;10134;50.952;6.930;2022-07-25T07:07:58;5.70;;;5.10;;
19944;SDS011;10134;50.952;6.930;2022-07-25T07:10:26;7.10;;;5.00;;
19944;SDS011;10134;50.952;6.930;2022-07-25T07:13:13;6.55;;;4.80;;
19944;SDS011;10134;50.952;6.930;2022-07-25T07:15:49;7.35;;;4.75;;
19944;SDS011;10134;50.952;6.930;2022-07-25T07:18:17;8.93;;;5.40;;
19944;SDS011;10134;50.952;6.930;2022-07-25T07:20:46;7.55;;;5.18;;
19944;SDS011;10134;50.952;6.930;2022-07-25T07:23:13;6.90;;;5.65;;
19944;SDS011;10134;50.952;6.930;2022-07-25T07:25:44;6.38;;;4.97;;
19944;SDS011;10134;50.952;6.930;2022-07-25T07:28:12;6.80;;;4.85;;
19944;SDS011;10134;50.952;6.930;2022-07-25T07:30:40;10.07;;;5.20;;
19944;SDS011;10134;50.952;6.930;2022-07-25T07:33:27;8.30;;;5.57;;
19944;SDS011;10134;50.952;6.930;2022-07-25T07:35:55;7.80;;;5.03;;
19944;SDS011;10134;50.952;6.930;2022-07-25T07:38:23;9.25;;;5.18;;
19944;SDS011;10134;50.952;6.930;2022-07-25T07:40:51;6.18;;;5.20;;
19944;SDS011;10134;50.952;6.930;2022-07-25T07:43:19;6.32;;;4.82;;
19944;SDS011;10134;50.952;6.930;2022-07-25T07:45:48;9.93;;;5.72;;
19944;SDS011;10134;50.952;6.930;2022-07-25T07:48:16;9.68;;;6.03;;
19944;SDS011;10134;50.952;6.930;2022-07-25T07:50:43;7.15;;;5.32;;
19944;SDS011;10134;50.952;6.930;2022-07-25T07:53:11;7.65;;;5.35;;
19944;SDS011;10134;50.952;6.930;2022-07-25T07:55:38;6.93;;;5.07;;
19944;SDS011;10134;50.952;6.930;2022-07-25T07:58:13;7.57;;;5.03;;
19944;SDS011;10134;50.952;6.930;2022-07-25T08:00:43;7.72;;;5.30;;
19944;SDS011;10134;50.952;6.930;2022-07-25T08:03:12;8.23;;;5.07;;
19944;SDS011;10134;50.952;6.930;2022-07-25T08:05:44;7.80;;;5.00;;
19944;SDS011;10134;50.952;6.930;2022-07-25T08:08:12;6.30;;;5.00;;
19944;SDS011;10134;50.952;6.930;2022-07-25T08:10:42;6.38;;;5.30;;
19944;SDS011;10134;50.952;6.930;2022-07-25T08:15:44;6.45;;;5.22;;
19944;SDS011;10134;50.952;6.930;2022-07-25T08:18:12;8.20;;;4.70;;
19944;SDS011;10134;50.952;6.930;2022-07-25T08:20:44;7.68;;;5.10;;
19944;SDS011;10134;50.952;6.930;2022-07-25T08:23:12;5.35;;;4.70;;
19944;SDS011;10134;50.952;6.930;2022-07-25T08:25:40;9.85;;;4.78;;
19944;SDS011;10134;50.952;6.930;2022-07-25T08:28:08;7.95;;;5.18;;
19944;SDS011;10134;50.952;6.930;2022-07-25T08:30:36;8.60;;;5.80;;
19944;SDS011;10134;50.952;6.930;2022-07-25T08:33:05;7.00;;;5.20;;
19944;SDS011;10134;50.952;6.930;2022-07-25T08:35:35;9.23;;;4.85;;
19944;SDS011;10134;50.952;6.930;2022-07-25T08:38:03;8.98;;;4.63;;
19944;SDS011;10134;50.952;6.930;2022-07-25T08:40:31;5.30;;;4.65;;
19944;SDS011;10134;50.952;6.930;2022-07-25T08:42:59;10.75;;;5.40;;
19944;SDS011;10134;50.952;6.930;2022-07-25T08:45:26;8.07;;;5.18;;
19944;SDS011;10134;50.952;6.930;2022-07-25T08:47:54;5.90;;;4.63;;
19944;SDS011;10134;50.952;6.930;2022-07-25T08:50:23;12.00;;;5.32;;
19944;SDS011;10134;50.952;6.930;2022-07-25T08:52:52;8.00;;;5.15;;
19944;SDS011;10134;50.952;6.930;2022-07-25T08:55:40;8.73;;;4.90;;
19944;SDS011;10134;50.952;6.930;2022-07-25T08:58:11;7.82;;;4.57;;
19944;SDS011;10134;50.952;6.930;2022-07-25T09:00:40;10.23;;;5.03;;
19944;SDS011;10134;50.952;6.930;2022-07-25T09:03:08;5.00;;;4.40;;
19944;SDS011;10134;50.952;6.930;2022-07-25T09:05:36;6.63;;;4.75;;
19944;SDS011;10134;50.952;6.930;2022-07-25T09:10:37;6.88;;;5.10;;
19944;SDS011;10134;50.952;6.930;2022-07-25T09:13:07;7.13;;;4.80;;
19944;SDS011;10134;50.952;6.930;2022-07-25T09:15:40;5.60;;;4.45;;
19944;SDS011;10134;50.952;6.930;2022-07-25T09:18:13;6.57;;;5.43;;
19944;SDS011;10134;50.952;6.930;2022-07-25T09:20:46;5.65;;;4.32;;
19944;SDS011;10134;50.952;6.930;2022-07-25T09:23:29;5.53;;;4.72;;
19944;SDS011;10134;50.952;6.930;2022-07-25T09:28:40;8.00;;;5.07;;
19944;SDS011;10134;50.952;6.930;2022-07-25T09:31:13;9.15;;;5.55;;
19944;SDS011;10134;50.952;6.930;2022-07-25T09:33:50;7.93;;;4.93;;
19944;SDS011;10134;50.952;6.930;2022-07-25T09:36:22;6.03;;;4.93;;
19944;SDS011;10134;50.952;6.930;2022-07-25T09:38:53;7.53;;;4.88;;
19944;SDS011;10134;50.952;6.930;2022-07-25T09:41:31;7.05;;;4.55;;
19944;SDS011;10134;50.952;6.930;2022-07-25T09:44:03;7.80;;;5.38;;
19944;SDS011;10134;50.952;6.930;2022-07-25T09:46:44;8.50;;;5.28;;
19944;SDS011;10134;50.952;6.930;2022-07-25T09:49:12;5.97;;;4.70;;
19944;SDS011;10134;50.952;6.930;2022-07-25T09:51:42;6.38;;;5.07;;
19944;SDS011;10134;50.952;6.930;2022-07-25T09:54:09;9.23;;;5.65;;
19944;SDS011;10134;50.952;6.930;2022-07-25T09:56:37;6.13;;;4.97;;
19944;SDS011;10134;50.952;6.930;2022-07-25T09:59:04;6.00;;;5.13;;
19944;SDS011;10134;50.952;6.930;2022-07-25T10:01:33;8.80;;;5.00;;
19944;SDS011;10134;50.952;6.930;2022-07-25T10:07:06;8.93;;;5.40;;
19944;SDS011;10134;50.952;6.930;2022-07-25T10:09:42;8.65;;;4.68;;
19944;SDS011;10134;50.952;6.930;2022-07-25T10:12:17;6.90;;;4.53;;
19944;SDS011;10134;50.952;6.930;2022-07-25T10:17:39;6.68;;;4.53;;
19944;SDS011;10134;50.952;6.930;2022-07-25T10:20:07;13.82;;;5.25;;
19944;SDS011;10134;50.952;6.930;2022-07-25T10:22:39;6.70;;;4.75;;
19944;SDS011;10134;50.952;6.930;2022-07-25T10:25:22;5.78;;;4.32;;
19944;SDS011;10134;50.952;6.930;2022-07-25T10:27:51;8.77;;;5.03;;
19944;SDS011;10134;50.952;6.930;2022-07-25T10:30:27;8.93;;;5.22;;
19944;SDS011;10134;50.952;6.930;2022-07-25T10:33:13;5.22;;;4.55;;
19944;SDS011;10134;50.952;6.930;2022-07-25T10:35:43;6.65;;;4.88;;
19944;SDS011;10134;50.952;6.930;2022-07-25T10:38:11;8.48;;;4.95;;
19944;SDS011;10134;50.952;6.930;2022-07-25T10:40:40;5.60;;;4.93;;
19944;SDS011;10134;50.952;6.930;2022-07-25T10:43:19;6.65;;;4.40;;
19944;SDS011;10134;50.952;6.930;2022-07-25T10:45:49;7.55;;;5.60;;
19944;SDS011;10134;50.952;6.930;2022-07-25T10:48:23;8.30;;;5.05;;
19944;SDS011;10134;50.952;6.930;2022-07-25T10:56:02;6.30;;;4.85;;
19944;SDS011;10134;50.952;6.930;2022-07-25T10:58:42;6.45;;;4.88;;
19944;SDS011;10134;50.952;6.930;2022-07-25T11:01:18;6.38;;;4.55;;
19944;SDS011;10134;50.952;6.930;2022-07-25T11:03:52;6.53;;;4.65;;
19944;SDS011;10134;50.952;6.930;2022-07-25T11:06:55;7.30;;;3.80;;
19944;SDS011;10134;50.952;6.930;2022-07-25T11:11:56;4.72;;;4.20;;
19944;SDS011;10134;50.952;6.930;2022-07-25T11:14:28;5.90;;;4.57;;
19944;SDS011;10134;50.952;6.930;2022-07-25T11:22:32;6.53;;;4.50;;
19944;SDS011;10134;50.952;6.930;2022-07-25T11:25:01;8.95;;;4.38;;
19944;SDS011;10134;50.952;6.930;2022-07-25T11:27:36;4.68;;;3.55;;
19944;SDS011;10134;50.952;6.930;2022-07-25T11:30:07;6.55;;;4.30;;
19944;SDS011;10134;50.952;6.930;2022-07-25T11:32:43;7.07;;;4.03;;
19944;SDS011;10134;50.952;6.930;2022-07-25T11:35:13;7.80;;;4.47;;
19944;SDS011;10134;50.952;6.930;2022-07-25T11:37:41;5.55;;;3.53;;
19944;SDS011;10134;50.952;6.930;2022-07-25T11:40:14;4.72;;;3.83;;
19944;SDS011;10134;50.952;6.930;2022-07-25T11:42:43;5.88;;;3.33;;
19944;SDS011;10134;50.952;6.930;2022-07-25T11:48:00;4.38;;;3.55;;
19944;SDS011;10134;50.952;6.930;2022-07-25T11:50:29;6.10;;;3.60;;
19944;SDS011;10134;50.952;6.930;2022-07-25T11:52:58;4.43;;;3.70;;
19944;SDS011;10134;50.952;6.930;2022-07-25T11:55:27;5.60;;;3.70;;
19944;SDS011;10134;50.952;6.930;2022-07-25T11:57:58;9.52;;;3.85;;
19944;SDS011;10134;50.952;6.930;2022-07-25T12:00:27;6.13;;;3.08;;
19944;SDS011;10134;50.952;6.930;2022-07-25T12:03:04;4.15;;;2.88;;
19944;SDS011;10134;50.952;6.930;2022-07-25T12:05:33;4.38;;;3.25;;
19944;SDS011;10134;50.952;6.930;2022-07-25T12:08:07;5.97;;;2.90;;
19944;SDS011;10134;50.952;6.930;2022-07-25T12:10:35;4.15;;;3.17;;
19944;SDS011;10134;50.952;6.930;2022-07-25T12:13:04;6.07;;;3.13;;
19944;SDS011;10134;50.952;6.930;2022-07-25T12:15:37;10.43;;;3.33;;
19944;SDS011;10134;50.952;6.930;2022-07-25T12:18:06;3.35;;;3.00;;
19944;SDS011;10134;50.952;6.930;2022-07-25T12:20:40;3.42;;;2.70;;
19944;SDS011;10134;50.952;6.930;2022-07-25T12:23:09;5.53;;;3.58;;
19944;SDS011;10134;50.952;6.930;2022-07-25T12:25:42;8.00;;;3.00;;
19944;SDS011;10134;50.952;6.930;2022-07-25T12:28:11;6.50;;;3.35;;
19944;SDS011;10134;50.952;6.930;2022-07-25T12:30:40;6.55;;;3.75;;
19944;SDS011;10134;50.952;6.930;2022-07-25T12:33:09;6.20;;;3.13;;
19944;SDS011;10134;50.952;6.930;2022-07-25T12:35:38;2.88;;;2.45;;
19944;SDS011;10134;50.952;6.930;2022-07-25T12:38:07;6.35;;;2.67;;
19944;SDS011;10134;50.952;6.930;2022-07-25T12:40:34;5.00;;;3.33;;
19944;SDS011;10134;50.952;6.930;2022-07-25T12:43:02;6.03;;;2.97;;
19944;SDS011;10134;50.952;6.930;2022-07-25T12:45:30;6.15;;;2.72;;
19944;SDS011;10134;50.952;6.930;2022-07-25T12:47:57;2.47;;;2.08;;
19944;SDS011;10134;50.952;6.930;2022-07-25T12:50:24;3.78;;;2.25;;
19944;SDS011;10134;50.952;6.930;2022-07-25T12:52:52;4.70;;;2.22;;
19944;SDS011;10134;50.952;6.930;2022-07-25T12:55:20;4.03;;;2.60;;
19944;SDS011;10134;50.952;6.930;2022-07-25T12:57:47;5.18;;;2.92;;
19944;SDS011;10134;50.952;6.930;2022-07-25T13:00:16;3.08;;;2.47;;
19944;SDS011;10134;50.952;6.930;2022-07-25T13:02:46;4.22;;;2.40;;
19944;SDS011;10134;50.952;6.930;2022-07-25T13:05:17;7.85;;;2.63;;
19944;SDS011;10134;50.952;6.930;2022-07-25T13:07:45;5.47;;;2.50;;
19944;SDS011;10134;50.952;6.930;2022-07-25T13:10:14;11.15;;;2.92;;
19944;SDS011;10134;50.952;6.930;2022-07-25T13:12:42;4.18;;;2.97;;
19944;SDS011;10134;50.952;6.930;2022-07-25T13:15:09;4.78;;;2.85;;
19944;SDS011;10134;50.952;6.930;2022-07-25T13:17:37;4.65;;;2.53;;
19944;SDS011;10134;50.952;6.930;2022-07-25T13:20:06;7.07;;;2.80;;
19944;SDS011;10134;50.952;6.930;2022-07-25T13:22:34;5.63;;;2.33;;
19944;SDS011;10134;50.952;6.930;2022-07-25T13:25:01;9.63;;;2.85;;
19944;SDS011;10134;50.952;6.930;2022-07-25T13:27:29;5.75;;;2.38;;
19944;SDS011;10134;50.952;6.930;2022-07-25T13:29:56;4.68;;;2.47;;
19944;SDS011;10134;50.952;6.930;2022-07-25T13:32:24;3.53;;;2.53;;
19944;SDS011;10134;50.952;6.930;2022-07-25T13:34:52;2.03;;;1.70;;
19944;SDS011;10134;50.952;6.930;2022-07-25T13:37:19;4.38;;;2.20;;
19944;SDS011;10134;50.952;6.930;2022-07-25T13:39:47;3.53;;;2.08;;
19944;SDS011;10134;50.952;6.930;2022-07-25T13:42:14;2.67;;;1.90;;
19944;SDS011;10134;50.952;6.930;2022-07-25T13:44:42;2.92;;;1.98;;
19944;SDS011;10134;50.952;6.930;2022-07-25T13:47:09;5.65;;;2.10;;
19944;SDS011;10134;50.952;6.930;2022-07-25T13:49:37;2.33;;;1.70;;
19944;SDS011;10134;50.952;6.930;2022-07-25T13:52:04;4.15;;;1.80;;
19944;SDS011;10134;50.952;6.930;2022-07-25T13:54:32;4.70;;;2.03;;
19944;SDS011;10134;50.952;6.930;2022-07-25T13:57:00;4.70;;;2.13;;
19944;SDS011;10134;50.952;6.930;2022-07-25T13:59:29;4.15;;;1.70;;
19944;SDS011;10134;50.952;6.930;2022-07-25T14:01:56;2.40;;;1.60;;
19944;SDS011;10134;50.952;6.930;2022-07-25T14:04:23;5.18;;;1.83;;
19944;SDS011;10134;50.952;6.930;2022-07-25T14:06:51;1.55;;;1.45;;
19944;SDS011;10134;50.952;6.930;2022-07-25T14:09:19;4.32;;;1.38;;
19944;SDS011;10134;50.952;6.930;2022-07-25T14:11:47;3.90;;;1.90;;
19944;SDS011;10134;50.952;6.930;2022-07-25T14:14:14;4.93;;;1.73;;
19944;SDS011;10134;50.952;6.930;2022-07-25T14:16:42;2.33;;;1.52;;
19944;SDS011;10134;50.952;6.930;2022-07-25T14:19:09;4.65;;;1.83;;
19944;SDS011;10134;50.952;6.930;2022-07-25T14:21:37;3.53;;;2.03;;
19944;SDS011;10134;50.952;6.930;2022-07-25T14:24:04;2.38;;;1.60;;
19944;SDS011;10134;50.952;6.930;2022-07-25T14:26:32;3.40;;;2.08;;
19944;SDS011;10134;50.952;6.930;2022-07-25T14:29:00;6.28;;;2.10;;
19944;SDS011;10134;50.952;6.930;2022-07-25T14:31:28;3.35;;;1.58;;
19944;SDS011;10134;50.952;6.930;2022-07-25T14:33:55;4.65;;;2.00;;
19944;SDS011;10134;50.952;6.930;2022-07-25T14:36:23;5.53;;;1.90;;
19944;SDS011;10134;50.952;6.930;2022-07-25T14:38:51;3.30;;;1.90;;
19944;SDS011;10134;50.952;6.930;2022-07-25T14:41:18;2.05;;;1.50;;
19944;SDS011;10134;50.952;6.930;2022-07-25T14:43:46;4.45;;;2.05;;
19944;SDS011;10134;50.952;6.930;2022-07-25T14:46:14;1.92;;;1.73;;
19944;SDS011;10134;50.952;6.930;2022-07-25T14:48:41;10.52;;;1.90;;
19944;SDS011;10134;50.952;6.930;2022-07-25T14:51:08;2.40;;;1.60;;
19944;SDS011;10134;50.952;6.930;2022-07-25T14:53:36;3.97;;;1.38;;
19944;SDS011;10134;50.952;6.930;2022-07-25T14:56:04;4.22;;;1.65;;
19944;SDS011;10134;50.952;6.930;2022-07-25T14:58:32;2.92;;;1.42;;
19944;SDS011;10134;50.952;6.930;2022-07-25T15:01:00;1.63;;;1.45;;
19944;SDS011;10134;50.952;6.930;2022-07-25T15:03:27;5.95;;;1.65;;
19944;SDS011;10134;50.952;6.930;2022-07-25T15:05:55;3.03;;;1.67;;
19944;SDS011;10134;50.952;6.930;2022-07-25T15:08:22;7.30;;;2.00;;
19944;SDS011;10134;50.952;6.930;2022-07-25T15:10:49;2.63;;;1.90;;
19944;SDS011;10134;50.952;6.930;2022-07-25T15:13:17;3.67;;;2.00;;
19944;SDS011;10134;50.952;6.930;2022-07-25T15:16:00;5.05;;;1.73;;
19944;SDS011;10134;50.952;6.930;2022-07-25T15:18:28;3.95;;;1.88;;
19944;SDS011;10134;50.952;6.930;2022-07-25T15:20:56;6.93;;;1.90;;
19944;SDS011;10134;50.952;6.930;2022-07-25T15:23:23;8.38;;;1.98;;
19944;SDS011;10134;50.952;6.930;2022-07-25T15:25:56;4.65;;;1.70;;
19944;SDS011;10134;50.952;6.930;2022-07-25T15:28:27;4.28;;;2.33;;